Terminal Aerodrome Forecast
Issued by NWS Austin/San Antonio, TX

Home | Current Version | Previous Version | Text Only | Print | Product List | Glossary On
Versions: 1 2 3 4 5 6 7 8 9 10 11 12 13 14 15 16 17 18 19 20 21 22 23 24 25 26 27 28 29 30 31 32 33 34 35
000
FTUS44 KEWX 171224 AAA
TAFSAT
TAF AMD
KSAT 171224Z 1712/1818 02009KT P6SM -DZ VCSH OVC008
     FM171400 02013KT 5SM -SHRA BR OVC007
     FM171700 03015KT 5SM -DZ BR OVC007
     FM180400 01006KT 3SM RA BR OVC005=

USA.gov is the U.S. government's official web portal to all federal, state and local government web resources and services.